Lavoy, Canada
Current Conditions -  °F | °C
As of 10:00 PM on Thursday 30 Oct 2014 (Local Time) from CYED Reporting Station
Overcast Overcast  
Wind Chill: 27°   Ceiling: 1000
Heat Index: 37°   Visibility: 9mi
Dew Point: 32°   Wind: 22mph
Humidity: 81%   Direction: 150°SSE
Pressure: 29.91"   Gusts: 30mph
Location:  53.47°N, 111.87°W
Report Text: CYED 310400Z AUTO 15019G26KT 9SM OVC010 03/00 A2991 RMK SLP156
Loading
Personal Weather Stations






























Interactive Weather Map
Tropical Storm Tracking
New forecast layout! Learn more

10-Day Weather Forecast

Advertisements
Track Severe Weather on mobile